DW4743 Rozas ES current weather conditions

sailwx.info

Wind from 261 at 2 knots gusting 4

Air temperature 3.9° C
Dewpoint 3.9° C

Last reported at 2019-Nov-15 06:43 UTC.
Time now 2019-Nov-15 07:57 UTC

Location: N 43°07' W 007°28'.
View on Google Maps.

See reports from other nearby stations

  
Tides and Currents Weather Stations Pressure Air Temp Water Temp Dewpoint Dewpoint Depression Visibility Wind Speed Wind Dir Waves Ship Positions
date/time (UTC)wind fromknots sea level pressurealtimeterstation pressurevisibilityair tempwater tempwave heightnotes
2019-Nov-15 06:43 261 2 gusting 4 3.9
2019-Nov-15 06:13 242 1 gusting 2 3.9
2019-Nov-15 06:03 242 3.9
2019-Nov-15 05:53 242 2 gusting 5 3.9
2019-Nov-15 05:43 213 3 gusting 4 3.9
2019-Nov-15 05:33 267 2 gusting 5 3.9
2019-Nov-15 05:03 260 5 gusting 7 3.9
2019-Nov-15 04:53 280 5 gusting 6 3.9
2019-Nov-15 04:43 300 4 gusting 6 3.9
2019-Nov-15 04:33 337 4 gusting 8 3.9
2019-Nov-15 04:23 313 7 gusting 18 3.9
2019-Nov-15 04:13 340 9 gusting 18 3.9
2019-Nov-15 04:03 276 5 gusting 7 3.9
2019-Nov-15 03:53 244 5 gusting 7 3.9
2019-Nov-15 03:43 250 5 gusting 6 3.3
2019-Nov-15 03:33 221 2 gusting 4 3.3
2019-Nov-15 03:23 235 4 gusting 5 3.3
2019-Nov-15 03:13 216 2 gusting 5 3.3
2019-Nov-15 03:03 254 2 gusting 4 3.3
2019-Nov-15 02:53 299 2 gusting 2 3.3
2019-Nov-15 02:23 346 5 gusting 11 3.3
2019-Nov-15 02:03 280 0 gusting 2 3.3
2019-Nov-15 01:53 280 2 gusting 6 3.3
2019-Nov-15 01:43 269 4 gusting 6 3.3
2019-Nov-15 01:33 294 6 gusting 10 3.3
2019-Nov-15 01:23 289 6 gusting 10 3.9
2019-Nov-15 01:13 294 6 gusting 12 3.9
2019-Nov-15 01:03 296 5 gusting 11 3.9
2019-Nov-15 00:53 281 5 gusting 6 3.3
2019-Nov-15 00:43 318 4 gusting 6 3.3
2019-Nov-15 00:33 327 6 gusting 10 3.3
2019-Nov-15 00:03 327 10 gusting 14 3.9
2019-Nov-14 23:53 334 6 gusting 10 3.9
2019-Nov-14 23:33 307 11 gusting 17 3.9
2019-Nov-14 23:23 306 10 gusting 14 4.4
2019-Nov-14 23:03 312 10 gusting 19 4.4
2019-Nov-14 22:53 331 13 gusting 19 4.4
2019-Nov-14 22:43 345 11 gusting 19 4.4
2019-Nov-14 22:33 333 12 gusting 19 4.4
2019-Nov-14 22:23 308 7 gusting 13 4.4
2019-Nov-14 22:13 297 6 gusting 13 5.0
2019-Nov-14 21:53 330 13 gusting 18 5.0
2019-Nov-14 21:43 306 7 gusting 10 5.0
2019-Nov-14 21:23 315 7 gusting 18 5.0
2019-Nov-14 21:13 329 11 gusting 14 5.0
2019-Nov-14 21:03 333 10 gusting 14 5.6
2019-Nov-14 20:53 327 10 gusting 13 5.0
2019-Nov-14 20:43 300 4 gusting 6 5.0
2019-Nov-14 20:23 327 8 gusting 13 5.0
2019-Nov-14 19:53 304 3 gusting 6 5.0
2019-Nov-14 19:43 320 6 gusting 11 5.0
2019-Nov-14 19:23 274 6 gusting 13 5.0
2019-Nov-14 19:13 306 9 gusting 18 5.0
2019-Nov-14 19:03 317 11 gusting 18 5.0
2019-Nov-14 18:53 305 7 gusting 12 5.6
2019-Nov-14 18:43 299 7 gusting 13 5.6
2019-Nov-14 18:23 297 10 gusting 14 6.1
2019-Nov-14 18:03 317 10 gusting 13 6.1
2019-Nov-14 17:33 314 12 gusting 26 5.6
2019-Nov-14 17:13 311 9 gusting 18 6.1
2019-Nov-14 16:53 311 14 gusting 25 6.1
2019-Nov-14 16:43 288 8 gusting 13 6.1
2019-Nov-14 16:33 309 11 gusting 19 6.1
2019-Nov-14 16:13 331 12 gusting 22 6.1
2019-Nov-14 15:53 310 17 gusting 24 6.7
2019-Nov-14 15:43 316 19 gusting 26 6.7
2019-Nov-14 15:33 327 13 gusting 24 6.7
2019-Nov-14 15:23 328 13 gusting 24 6.7
2019-Nov-14 13:53 321 19 gusting 27 8.3
2019-Nov-14 13:33 355 25 gusting 33 8.9
2019-Nov-14 13:23 321 18 gusting 24 8.3
2019-Nov-14 13:13 316 14 gusting 20 7.8
2019-Nov-14 13:03 313 13 gusting 24 8.3
2019-Nov-14 12:53 302 19 gusting 24 7.8
2019-Nov-14 12:13 279 13 gusting 17 7.2
2019-Nov-14 12:03 264 12 gusting 19 7.2
2019-Nov-14 11:53 293 11 gusting 21 7.2
2019-Nov-14 11:03 241 9 gusting 13 5.0
2019-Nov-14 10:53 242 7 gusting 13 5.0
2019-Nov-14 10:43 223 10 gusting 14 4.4
2019-Nov-14 10:33 212 10 gusting 13 4.4
2019-Nov-14 10:13 212 10 gusting 14 4.4
2019-Nov-14 10:03 200 8 gusting 12 4.4
2019-Nov-14 09:53 195 8 gusting 15 3.9
2019-Nov-14 09:33 220 11 gusting 19 3.3
2019-Nov-14 09:03 185 10 gusting 14 3.3
2019-Nov-14 08:53 180 8 gusting 15 3.3
2019-Nov-14 08:33 183 10 gusting 17 3.3
2019-Nov-14 08:23 186 9 gusting 15 3.3
2019-Nov-14 08:03 269 7 gusting 13 3.9
2019-Nov-14 07:53 195 8 gusting 15 3.9
2019-Nov-14 07:43 200 10 gusting 18 3.9
2019-Nov-14 07:23 202 11 gusting 17 3.9
2019-Nov-14 07:13 198 10 gusting 15 3.9
2019-Nov-14 06:53 194 8 gusting 15 3.9
2019-Nov-14 06:43 184 9 gusting 13 3.3
2019-Nov-14 06:33 186 7 gusting 13 3.3
2019-Nov-14 06:23 204 9 gusting 13 2.8
2019-Nov-14 06:03 216 10 gusting 14 2.8
2019-Nov-14 05:53 198 7 gusting 10 2.8
2019-Nov-14 05:33 200 4 gusting 6 2.8
2019-Nov-14 05:13 230 4 gusting 6 3.3
2019-Nov-14 04:53 208 3 gusting 4 3.3
2019-Nov-14 04:43 273 1 gusting 2 3.3
2019-Nov-14 04:33 273 1 gusting 6 3.3
2019-Nov-14 04:23 261 4 gusting 8 3.3
2019-Nov-14 04:13 271 6 gusting 18 3.9
2019-Nov-14 04:03 258 13 gusting 20 3.9
2019-Nov-14 03:43 321 7 gusting 14 4.4
2019-Nov-14 03:33 317 6 gusting 6 3.9
2019-Nov-14 03:23 198 4 gusting 6 3.9
2019-Nov-14 03:03 212 4 gusting 6 3.9
2019-Nov-14 02:53 238 2 gusting 4 3.9
2019-Nov-14 02:43 210 2 gusting 5 4.4
2019-Nov-14 02:33 236 2 gusting 4 4.4
2019-Nov-14 02:13 321 12 gusting 17 5.0
2019-Nov-14 02:03 300 4 gusting 7 5.6
2019-Nov-14 01:53 287 7 gusting 13 5.6
2019-Nov-14 01:43 301 6 gusting 8 5.6
2019-Nov-14 01:23 240 6 gusting 13 5.6
2019-Nov-14 01:03 245 8 gusting 14 5.0
2019-Nov-14 00:53 246 5 gusting 6 5.0
2019-Nov-14 00:33 267 7 gusting 12 5.6
2019-Nov-14 00:23 267 8 gusting 20 5.6
2019-Nov-14 00:13 288 12 gusting 21 6.1
2019-Nov-14 00:03 297 13 gusting 19 6.7
2019-Nov-13 23:53 278 11 gusting 18 6.7
2019-Nov-13 23:33 280 10 gusting 15 7.2
2019-Nov-13 23:23 295 8 gusting 12 7.8
2019-Nov-13 23:13 279 7 gusting 15 7.8
2019-Nov-13 22:23 279 11 gusting 22 8.3
2019-Nov-13 22:13 269 12 gusting 19 8.3
2019-Nov-13 22:03 275 7 gusting 12 8.3
2019-Nov-13 21:53 267 7 gusting 15 8.3
2019-Nov-13 21:43 274 10 gusting 19 8.9
2019-Nov-13 21:33 269 12 gusting 17 8.9
2019-Nov-13 20:53 223 8 gusting 14 8.9
2019-Nov-13 20:43 219 10 gusting 17 8.9
2019-Nov-13 20:33 224 12 gusting 18 8.9
2019-Nov-13 20:03 219 11 gusting 20 9.4
2019-Nov-13 19:53 228 10 gusting 17 9.4
2019-Nov-13 19:43 225 11 gusting 17 9.4
2019-Nov-13 19:13 219 12 gusting 17 9.4
2019-Nov-13 19:03 237 10 gusting 17 9.4
2019-Nov-13 18:53 228 11 gusting 17 9.4
2019-Nov-13 18:43 229 13 gusting 18 9.4
2019-Nov-13 18:13 230 10 gusting 17 9.4
2019-Nov-13 18:03 224 10 gusting 17 9.4
2019-Nov-13 17:53 229 9 gusting 13 9.4
2019-Nov-13 17:43 225 7 gusting 12 10.0
2019-Nov-13 17:33 217 10 gusting 13 10.0
2019-Nov-13 17:23 229 10 gusting 14 10.0
2019-Nov-13 17:13 240 10 gusting 17 10.0
2019-Nov-13 16:53 265 9 gusting 13 10.6
2019-Nov-13 16:33 219 6 gusting 12 10.6
2019-Nov-13 16:23 223 6 gusting 11 11.1
2019-Nov-13 16:13 242 6 gusting 10 11.1
2019-Nov-13 16:03 230 7 gusting 10 11.1
2019-Nov-13 15:53 250 6 gusting 11 11.1
2019-Nov-13 15:43 263 7 gusting 14 11.1
2019-Nov-13 15:33 248 11 gusting 17 11.7
2019-Nov-13 15:13 239 8 gusting 13 11.7
2019-Nov-13 15:03 232 6 gusting 10 12.2
2019-Nov-13 14:53 264 6 gusting 10 11.7
2019-Nov-13 14:43 250 5 gusting 11 11.7
2019-Nov-13 14:33 229 6 gusting 10 11.7
2019-Nov-13 14:13 236 6 gusting 7 11.1
2019-Nov-13 13:53 246 5 gusting 11 11.1
2019-Nov-13 13:23 253 6 gusting 6 10.6
2019-Nov-13 13:03 254 5 gusting 8 10.6
2019-Nov-13 12:53 267 7 gusting 13 10.6
2019-Nov-13 12:43 290 6 gusting 7 11.1
2019-Nov-13 12:33 248 4 gusting 6 11.1
2019-Nov-13 12:23 248 5 gusting 6 10.6
2019-Nov-13 12:03 229 4 gusting 6 10.6
2019-Nov-13 11:53 238 5 gusting 6 10.6
2019-Nov-13 11:33 290 6 gusting 10 10.0
2019-Nov-13 11:23 321 9 gusting 13 10.6
2019-Nov-13 10:53 296 5 gusting 6 10.0
2019-Nov-13 10:43 304 6 gusting 7 10.0
2019-Nov-13 10:33 309 2 gusting 4 10.0
2019-Nov-13 10:23 311 4 gusting 5 10.0
2019-Nov-13 10:13 300 3 gusting 5 10.0
2019-Nov-13 10:03 313 2 gusting 4 10.0
2019-Nov-13 09:43 022 4 gusting 6 10.0
2019-Nov-13 09:33 9.4
2019-Nov-13 08:53 005 0 gusting 2 9.4
2019-Nov-13 08:43 026 2 gusting 5 9.4
2019-Nov-13 08:13 9.4
2019-Nov-13 08:03 342 3 gusting 4 9.4
2019-Nov-13 07:53 335 4 gusting 5 9.4
2019-Nov-13 07:43 9.4
2019-Nov-13 07:33 026 4 gusting 7 9.4
2019-Nov-13 07:23 038 6 gusting 10 9.4
2019-Nov-13 07:13 028 2 gusting 4 9.4
2019-Nov-13 07:03 023 3 gusting 6 8.9